sensor_id;sensor_type;location;lat;lon;timestamp;P1;durP1;ratioP1;P2;durP2;ratioP2
52124;SDS011;38119;52.710;6.398;2023-04-01T00:02:18;6.10;;;3.30;;
52124;SDS011;38119;52.710;6.398;2023-04-01T00:04:44;5.43;;;3.10;;
52124;SDS011;38119;52.710;6.398;2023-04-01T00:07:10;7.45;;;3.47;;
52124;SDS011;38119;52.710;6.398;2023-04-01T00:09:36;6.43;;;3.50;;
52124;SDS011;38119;52.710;6.398;2023-04-01T00:12:02;6.47;;;3.00;;
52124;SDS011;38119;52.710;6.398;2023-04-01T00:14:28;5.70;;;3.45;;
52124;SDS011;38119;52.710;6.398;2023-04-01T00:16:54;6.65;;;3.20;;
52124;SDS011;38119;52.710;6.398;2023-04-01T00:19:20;6.13;;;3.40;;
52124;SDS011;38119;52.710;6.398;2023-04-01T00:21:46;5.18;;;3.13;;
52124;SDS011;38119;52.710;6.398;2023-04-01T00:24:13;8.43;;;3.20;;
52124;SDS011;38119;52.710;6.398;2023-04-01T00:26:39;6.35;;;3.50;;
52124;SDS011;38119;52.710;6.398;2023-04-01T00:29:07;6.50;;;3.15;;
52124;SDS011;38119;52.710;6.398;2023-04-01T00:31:33;4.85;;;3.40;;
52124;SDS011;38119;52.710;6.398;2023-04-01T00:33:59;5.93;;;3.75;;
52124;SDS011;38119;52.710;6.398;2023-04-01T00:36:25;6.40;;;3.60;;
52124;SDS011;38119;52.710;6.398;2023-04-01T00:38:51;6.35;;;3.70;;
52124;SDS011;38119;52.710;6.398;2023-04-01T00:41:18;6.10;;;3.30;;
52124;SDS011;38119;52.710;6.398;2023-04-01T00:43:45;6.00;;;3.25;;
52124;SDS011;38119;52.710;6.398;2023-04-01T00:46:13;7.65;;;3.58;;
52124;SDS011;38119;52.710;6.398;2023-04-01T00:48:44;7.35;;;3.45;;
52124;SDS011;38119;52.710;6.398;2023-04-01T00:51:20;4.82;;;3.28;;
52124;SDS011;38119;52.710;6.398;2023-04-01T00:53:50;7.13;;;3.58;;
52124;SDS011;38119;52.710;6.398;2023-04-01T00:56:22;7.47;;;3.65;;
52124;SDS011;38119;52.710;6.398;2023-04-01T00:58:58;7.88;;;3.90;;
52124;SDS011;38119;52.710;6.398;2023-04-01T01:01:33;5.63;;;3.45;;
52124;SDS011;38119;52.710;6.398;2023-04-01T01:04:00;8.48;;;3.60;;
52124;SDS011;38119;52.710;6.398;2023-04-01T01:09:12;5.95;;;3.30;;
52124;SDS011;38119;52.710;6.398;2023-04-01T01:14:53;7.00;;;3.38;;
52124;SDS011;38119;52.710;6.398;2023-04-01T01:28:22;6.43;;;3.58;;
52124;SDS011;38119;52.710;6.398;2023-04-01T01:31:16;6.10;;;3.35;;
52124;SDS011;38119;52.710;6.398;2023-04-01T01:36:51;5.93;;;3.63;;
52124;SDS011;38119;52.710;6.398;2023-04-01T01:39:21;6.00;;;3.77;;
52124;SDS011;38119;52.710;6.398;2023-04-01T01:42:00;5.82;;;3.28;;
52124;SDS011;38119;52.710;6.398;2023-04-01T01:44:29;5.90;;;3.60;;
52124;SDS011;38119;52.710;6.398;2023-04-01T01:46:56;6.35;;;3.60;;
52124;SDS011;38119;52.710;6.398;2023-04-01T01:49:22;7.10;;;4.05;;
52124;SDS011;38119;52.710;6.398;2023-04-01T01:51:48;7.55;;;3.67;;
52124;SDS011;38119;52.710;6.398;2023-04-01T01:54:15;5.95;;;3.35;;
52124;SDS011;38119;52.710;6.398;2023-04-01T01:56:43;5.88;;;3.35;;
52124;SDS011;38119;52.710;6.398;2023-04-01T01:59:12;6.53;;;3.45;;
52124;SDS011;38119;52.710;6.398;2023-04-01T02:01:41;6.68;;;3.55;;
52124;SDS011;38119;52.710;6.398;2023-04-01T02:04:10;5.70;;;3.22;;
52124;SDS011;38119;52.710;6.398;2023-04-01T02:06:38;6.03;;;3.55;;
52124;SDS011;38119;52.710;6.398;2023-04-01T02:09:10;7.68;;;3.70;;
52124;SDS011;38119;52.710;6.398;2023-04-01T02:16:47;7.67;;;3.90;;
52124;SDS011;38119;52.710;6.398;2023-04-01T02:19:23;7.80;;;3.90;;
52124;SDS011;38119;52.710;6.398;2023-04-01T02:21:54;7.32;;;4.05;;
52124;SDS011;38119;52.710;6.398;2023-04-01T02:24:24;6.93;;;4.05;;
52124;SDS011;38119;52.710;6.398;2023-04-01T02:26:52;7.63;;;3.92;;
52124;SDS011;38119;52.710;6.398;2023-04-01T02:29:19;5.68;;;3.63;;
52124;SDS011;38119;52.710;6.398;2023-04-01T02:31:46;6.50;;;4.20;;
52124;SDS011;38119;52.710;6.398;2023-04-01T02:34:13;6.43;;;3.78;;
52124;SDS011;38119;52.710;6.398;2023-04-01T02:36:39;5.72;;;3.60;;
52124;SDS011;38119;52.710;6.398;2023-04-01T02:39:04;7.25;;;4.00;;
52124;SDS011;38119;52.710;6.398;2023-04-01T02:41:31;6.85;;;4.20;;
52124;SDS011;38119;52.710;6.398;2023-04-01T02:43:57;5.80;;;3.53;;
52124;SDS011;38119;52.710;6.398;2023-04-01T02:46:23;6.57;;;3.80;;
52124;SDS011;38119;52.710;6.398;2023-04-01T02:48:49;5.43;;;3.80;;
52124;SDS011;38119;52.710;6.398;2023-04-01T02:51:15;5.63;;;3.72;;
52124;SDS011;38119;52.710;6.398;2023-04-01T02:53:41;6.07;;;4.20;;
52124;SDS011;38119;52.710;6.398;2023-04-01T02:56:06;7.65;;;4.55;;
52124;SDS011;38119;52.710;6.398;2023-04-01T02:58:32;5.95;;;3.92;;
52124;SDS011;38119;52.710;6.398;2023-04-01T03:00:58;7.60;;;4.43;;
52124;SDS011;38119;52.710;6.398;2023-04-01T03:03:23;6.00;;;4.07;;
52124;SDS011;38119;52.710;6.398;2023-04-01T03:05:49;6.25;;;4.28;;
52124;SDS011;38119;52.710;6.398;2023-04-01T03:08:14;7.00;;;4.13;;
52124;SDS011;38119;52.710;6.398;2023-04-01T03:10:40;7.88;;;4.38;;
52124;SDS011;38119;52.710;6.398;2023-04-01T03:13:05;7.28;;;4.30;;
52124;SDS011;38119;52.710;6.398;2023-04-01T03:15:31;5.90;;;4.28;;
52124;SDS011;38119;52.710;6.398;2023-04-01T03:17:56;6.25;;;4.55;;
52124;SDS011;38119;52.710;6.398;2023-04-01T03:20:22;7.35;;;4.75;;
52124;SDS011;38119;52.710;6.398;2023-04-01T03:22:48;8.13;;;4.95;;
52124;SDS011;38119;52.710;6.398;2023-04-01T03:25:13;8.15;;;4.78;;
52124;SDS011;38119;52.710;6.398;2023-04-01T03:27:39;7.57;;;4.50;;
52124;SDS011;38119;52.710;6.398;2023-04-01T03:30:05;7.50;;;4.38;;
52124;SDS011;38119;52.710;6.398;2023-04-01T03:32:31;7.30;;;4.80;;
52124;SDS011;38119;52.710;6.398;2023-04-01T03:34:57;8.30;;;4.60;;
52124;SDS011;38119;52.710;6.398;2023-04-01T03:37:23;5.85;;;4.28;;
52124;SDS011;38119;52.710;6.398;2023-04-01T03:39:49;9.13;;;4.80;;
52124;SDS011;38119;52.710;6.398;2023-04-01T03:42:15;6.72;;;4.13;;
52124;SDS011;38119;52.710;6.398;2023-04-01T03:44:44;6.75;;;4.72;;
52124;SDS011;38119;52.710;6.398;2023-04-01T03:47:10;8.45;;;5.05;;
52124;SDS011;38119;52.710;6.398;2023-04-01T03:49:35;8.23;;;4.90;;
52124;SDS011;38119;52.710;6.398;2023-04-01T03:52:01;8.23;;;4.95;;
52124;SDS011;38119;52.710;6.398;2023-04-01T03:54:27;6.50;;;4.68;;
52124;SDS011;38119;52.710;6.398;2023-04-01T03:56:52;9.18;;;4.95;;
52124;SDS011;38119;52.710;6.398;2023-04-01T03:59:18;6.50;;;4.38;;
52124;SDS011;38119;52.710;6.398;2023-04-01T04:01:43;7.68;;;4.70;;
52124;SDS011;38119;52.710;6.398;2023-04-01T04:04:11;7.63;;;4.97;;
52124;SDS011;38119;52.710;6.398;2023-04-01T04:06:40;7.65;;;5.10;;
52124;SDS011;38119;52.710;6.398;2023-04-01T04:09:05;7.70;;;4.55;;
52124;SDS011;38119;52.710;6.398;2023-04-01T04:11:31;8.68;;;4.72;;
52124;SDS011;38119;52.710;6.398;2023-04-01T04:13:57;7.78;;;4.43;;
52124;SDS011;38119;52.710;6.398;2023-04-01T04:16:23;6.38;;;4.13;;
52124;SDS011;38119;52.710;6.398;2023-04-01T04:18:49;8.15;;;5.00;;
52124;SDS011;38119;52.710;6.398;2023-04-01T04:21:16;7.38;;;4.82;;
52124;SDS011;38119;52.710;6.398;2023-04-01T04:23:42;9.25;;;4.65;;
52124;SDS011;38119;52.710;6.398;2023-04-01T04:26:09;6.75;;;4.30;;
52124;SDS011;38119;52.710;6.398;2023-04-01T04:28:36;7.38;;;4.65;;
52124;SDS011;38119;52.710;6.398;2023-04-01T04:31:02;7.35;;;4.97;;
52124;SDS011;38119;52.710;6.398;2023-04-01T04:33:30;6.32;;;4.65;;
52124;SDS011;38119;52.710;6.398;2023-04-01T04:35:56;8.88;;;4.78;;
52124;SDS011;38119;52.710;6.398;2023-04-01T04:38:23;8.05;;;4.80;;
52124;SDS011;38119;52.710;6.398;2023-04-01T04:40:49;8.68;;;5.03;;
52124;SDS011;38119;52.710;6.398;2023-04-01T04:43:15;7.47;;;5.05;;
52124;SDS011;38119;52.710;6.398;2023-04-01T04:45:42;8.05;;;5.00;;
52124;SDS011;38119;52.710;6.398;2023-04-01T04:48:09;6.97;;;4.68;;
52124;SDS011;38119;52.710;6.398;2023-04-01T04:50:35;8.23;;;4.72;;
52124;SDS011;38119;52.710;6.398;2023-04-01T04:53:01;7.32;;;4.68;;
52124;SDS011;38119;52.710;6.398;2023-04-01T04:55:27;7.53;;;5.00;;
52124;SDS011;38119;52.710;6.398;2023-04-01T04:57:53;8.10;;;5.03;;
52124;SDS011;38119;52.710;6.398;2023-04-01T05:00:19;8.85;;;5.40;;
52124;SDS011;38119;52.710;6.398;2023-04-01T05:02:44;8.10;;;5.30;;
52124;SDS011;38119;52.710;6.398;2023-04-01T05:05:10;9.80;;;5.10;;
52124;SDS011;38119;52.710;6.398;2023-04-01T05:07:36;8.93;;;5.47;;
52124;SDS011;38119;52.710;6.398;2023-04-01T05:10:02;9.38;;;5.53;;
52124;SDS011;38119;52.710;6.398;2023-04-01T05:12:27;7.78;;;4.90;;
52124;SDS011;38119;52.710;6.398;2023-04-01T05:14:53;7.88;;;4.68;;
52124;SDS011;38119;52.710;6.398;2023-04-01T05:17:18;8.52;;;4.35;;
52124;SDS011;38119;52.710;6.398;2023-04-01T05:19:44;6.60;;;4.28;;
52124;SDS011;38119;52.710;6.398;2023-04-01T05:22:09;5.53;;;3.85;;
52124;SDS011;38119;52.710;6.398;2023-04-01T05:24:35;8.57;;;4.63;;
52124;SDS011;38119;52.710;6.398;2023-04-01T05:27:01;6.63;;;4.32;;
52124;SDS011;38119;52.710;6.398;2023-04-01T05:29:27;6.57;;;3.88;;
52124;SDS011;38119;52.710;6.398;2023-04-01T05:31:52;6.43;;;4.03;;
52124;SDS011;38119;52.710;6.398;2023-04-01T05:34:18;7.25;;;4.20;;
52124;SDS011;38119;52.710;6.398;2023-04-01T05:36:44;6.97;;;4.38;;
52124;SDS011;38119;52.710;6.398;2023-04-01T05:39:09;7.70;;;4.25;;
52124;SDS011;38119;52.710;6.398;2023-04-01T05:41:35;6.90;;;4.07;;
52124;SDS011;38119;52.710;6.398;2023-04-01T05:44:02;5.50;;;3.70;;
52124;SDS011;38119;52.710;6.398;2023-04-01T05:46:27;6.82;;;3.95;;
52124;SDS011;38119;52.710;6.398;2023-04-01T05:48:53;5.30;;;3.25;;
52124;SDS011;38119;52.710;6.398;2023-04-01T05:51:18;4.32;;;2.90;;
52124;SDS011;38119;52.710;6.398;2023-04-01T05:53:44;4.55;;;2.88;;
52124;SDS011;38119;52.710;6.398;2023-04-01T05:56:10;4.30;;;2.42;;
52124;SDS011;38119;52.710;6.398;2023-04-01T05:58:36;4.97;;;2.50;;
52124;SDS011;38119;52.710;6.398;2023-04-01T06:01:03;4.88;;;3.03;;
52124;SDS011;38119;52.710;6.398;2023-04-01T06:03:33;4.15;;;2.60;;
52124;SDS011;38119;52.710;6.398;2023-04-01T06:05:59;4.20;;;2.42;;
52124;SDS011;38119;52.710;6.398;2023-04-01T06:08:26;5.40;;;3.30;;
52124;SDS011;38119;52.710;6.398;2023-04-01T06:14:10;4.43;;;3.05;;
52124;SDS011;38119;52.710;6.398;2023-04-01T06:16:50;6.60;;;3.35;;
52124;SDS011;38119;52.710;6.398;2023-04-01T06:19:55;5.70;;;3.83;;
52124;SDS011;38119;52.710;6.398;2023-04-01T06:25:42;6.30;;;3.90;;
52124;SDS011;38119;52.710;6.398;2023-04-01T06:34:26;7.30;;;4.32;;
52124;SDS011;38119;52.710;6.398;2023-04-01T06:37:31;7.38;;;4.60;;
52124;SDS011;38119;52.710;6.398;2023-04-01T06:40:08;9.18;;;4.60;;
52124;SDS011;38119;52.710;6.398;2023-04-01T06:45:28;8.73;;;5.07;;
52124;SDS011;38119;52.710;6.398;2023-04-01T06:53:36;8.73;;;5.78;;
52124;SDS011;38119;52.710;6.398;2023-04-01T06:56:11;10.20;;;6.22;;
52124;SDS011;38119;52.710;6.398;2023-04-01T07:01:16;11.23;;;6.30;;
52124;SDS011;38119;52.710;6.398;2023-04-01T07:03:58;9.52;;;5.90;;
52124;SDS011;38119;52.710;6.398;2023-04-01T07:06:39;11.60;;;7.13;;
52124;SDS011;38119;52.710;6.398;2023-04-01T07:09:24;11.48;;;7.05;;
52124;SDS011;38119;52.710;6.398;2023-04-01T07:11:53;11.95;;;7.32;;
52124;SDS011;38119;52.710;6.398;2023-04-01T07:14:32;10.68;;;6.40;;
52124;SDS011;38119;52.710;6.398;2023-04-01T07:17:09;11.35;;;6.88;;
52124;SDS011;38119;52.710;6.398;2023-04-01T07:19:48;11.38;;;6.78;;
52124;SDS011;38119;52.710;6.398;2023-04-01T07:28:05;10.10;;;5.93;;
52124;SDS011;38119;52.710;6.398;2023-04-01T07:30:42;10.07;;;5.53;;
52124;SDS011;38119;52.710;6.398;2023-04-01T07:36:10;9.38;;;5.45;;
52124;SDS011;38119;52.710;6.398;2023-04-01T07:41:44;10.52;;;5.90;;
52124;SDS011;38119;52.710;6.398;2023-04-01T07:44:35;11.70;;;6.60;;
52124;SDS011;38119;52.710;6.398;2023-04-01T07:50:11;9.30;;;6.30;;
52124;SDS011;38119;52.710;6.398;2023-04-01T07:53:14;10.32;;;6.10;;
52124;SDS011;38119;52.710;6.398;2023-04-01T08:01:29;9.40;;;6.80;;
52124;SDS011;38119;52.710;6.398;2023-04-01T08:09:31;9.15;;;6.10;;
52124;SDS011;38119;52.710;6.398;2023-04-01T08:12:29;9.98;;;6.25;;
52124;SDS011;38119;52.710;6.398;2023-04-01T08:15:22;9.85;;;5.78;;
52124;SDS011;38119;52.710;6.398;2023-04-01T08:21:00;7.70;;;5.57;;
52124;SDS011;38119;52.710;6.398;2023-04-01T08:23:28;9.13;;;6.05;;
52124;SDS011;38119;52.710;6.398;2023-04-01T08:26:00;9.07;;;4.80;;
52124;SDS011;38119;52.710;6.398;2023-04-01T08:31:11;7.55;;;5.30;;
52124;SDS011;38119;52.710;6.398;2023-04-01T08:33:44;8.38;;;5.13;;
52124;SDS011;38119;52.710;6.398;2023-04-01T08:36:15;7.05;;;4.65;;
52124;SDS011;38119;52.710;6.398;2023-04-01T08:52:33;5.10;;;3.78;;
52124;SDS011;38119;52.710;6.398;2023-04-01T09:00:57;5.68;;;2.90;;
52124;SDS011;38119;52.710;6.398;2023-04-01T09:03:51;4.47;;;2.97;;
52124;SDS011;38119;52.710;6.398;2023-04-01T09:17:57;4.60;;;2.70;;
52124;SDS011;38119;52.710;6.398;2023-04-01T09:23:29;5.25;;;2.80;;
52124;SDS011;38119;52.710;6.398;2023-04-01T09:26:05;3.50;;;2.40;;
52124;SDS011;38119;52.710;6.398;2023-04-01T09:42:44;3.55;;;1.30;;
52124;SDS011;38119;52.710;6.398;2023-04-01T09:45:39;2.10;;;1.63;;
52124;SDS011;38119;52.710;6.398;2023-04-01T09:48:13;2.38;;;1.40;;
52124;SDS011;38119;52.710;6.398;2023-04-01T09:50:47;2.73;;;1.40;;
52124;SDS011;38119;52.710;6.398;2023-04-01T09:53:40;2.65;;;1.42;;
52124;SDS011;38119;52.710;6.398;2023-04-01T09:59:01;2.67;;;2.00;;
52124;SDS011;38119;52.710;6.398;2023-04-01T10:04:42;4.10;;;2.70;;
52124;SDS011;38119;52.710;6.398;2023-04-01T10:18:15;6.22;;;4.20;;
52124;SDS011;38119;52.710;6.398;2023-04-01T10:34:43;9.10;;;5.80;;
52124;SDS011;38119;52.710;6.398;2023-04-01T10:37:23;7.97;;;5.45;;
52124;SDS011;38119;52.710;6.398;2023-04-01T10:42:59;7.90;;;5.50;;
52124;SDS011;38119;52.710;6.398;2023-04-01T10:45:46;7.63;;;5.30;;
52124;SDS011;38119;52.710;6.398;2023-04-01T10:48:36;7.40;;;5.32;;
52124;SDS011;38119;52.710;6.398;2023-04-01T10:57:08;7.75;;;5.55;;
52124;SDS011;38119;52.710;6.398;2023-04-01T11:02:48;7.78;;;5.50;;
52124;SDS011;38119;52.710;6.398;2023-04-01T11:14:09;7.47;;;5.18;;
52124;SDS011;38119;52.710;6.398;2023-04-01T11:25:02;7.78;;;5.53;;
52124;SDS011;38119;52.710;6.398;2023-04-01T11:33:33;8.13;;;5.53;;
52124;SDS011;38119;52.710;6.398;2023-04-01T11:44:32;8.80;;;5.13;;
52124;SDS011;38119;52.710;6.398;2023-04-01T11:58:45;8.60;;;5.43;;
52124;SDS011;38119;52.710;6.398;2023-04-01T12:01:25;6.97;;;5.28;;
52124;SDS011;38119;52.710;6.398;2023-04-01T12:07:15;6.85;;;5.18;;
52124;SDS011;38119;52.710;6.398;2023-04-01T12:12:34;7.07;;;5.07;;
52124;SDS011;38119;52.710;6.398;2023-04-01T12:34:19;6.57;;;4.57;;
52124;SDS011;38119;52.710;6.398;2023-04-01T12:37:13;6.18;;;4.30;;
52124;SDS011;38119;52.710;6.398;2023-04-01T12:48:00;5.85;;;4.38;;
52124;SDS011;38119;52.710;6.398;2023-04-01T13:22:15;5.53;;;3.65;;
52124;SDS011;38119;52.710;6.398;2023-04-01T13:24:50;4.88;;;3.65;;
52124;SDS011;38119;52.710;6.398;2023-04-01T13:30:04;6.53;;;3.97;;
52124;SDS011;38119;52.710;6.398;2023-04-01T13:35:43;6.57;;;3.85;;
52124;SDS011;38119;52.710;6.398;2023-04-01T13:43:52;4.97;;;3.65;;
52124;SDS011;38119;52.710;6.398;2023-04-01T13:49:13;5.00;;;3.72;;
52124;SDS011;38119;52.710;6.398;2023-04-01T13:51:52;6.35;;;3.70;;
52124;SDS011;38119;52.710;6.398;2023-04-01T13:57:24;5.05;;;3.03;;
52124;SDS011;38119;52.710;6.398;2023-04-01T14:00:24;4.63;;;3.22;;
52124;SDS011;38119;52.710;6.398;2023-04-01T14:03:12;4.53;;;3.40;;
52124;SDS011;38119;52.710;6.398;2023-04-01T14:11:20;6.40;;;3.55;;
52124;SDS011;38119;52.710;6.398;2023-04-01T14:16:53;4.57;;;3.40;;
52124;SDS011;38119;52.710;6.398;2023-04-01T14:19:56;4.43;;;3.35;;
52124;SDS011;38119;52.710;6.398;2023-04-01T14:22:46;6.22;;;3.30;;
52124;SDS011;38119;52.710;6.398;2023-04-01T14:39:21;4.13;;;3.13;;
52124;SDS011;38119;52.710;6.398;2023-04-01T14:47:34;3.70;;;3.00;;
52124;SDS011;38119;52.710;6.398;2023-04-01T14:50:24;5.40;;;2.85;;
52124;SDS011;38119;52.710;6.398;2023-04-01T14:53:13;4.22;;;2.53;;
52124;SDS011;38119;52.710;6.398;2023-04-01T14:58:08;3.45;;;2.58;;
52124;SDS011;38119;52.710;6.398;2023-04-01T15:12:16;4.90;;;3.00;;
52124;SDS011;38119;52.710;6.398;2023-04-01T15:15:29;3.80;;;2.85;;
52124;SDS011;38119;52.710;6.398;2023-04-01T15:18:10;3.67;;;2.78;;
52124;SDS011;38119;52.710;6.398;2023-04-01T15:26:31;4.03;;;2.80;;
52124;SDS011;38119;52.710;6.398;2023-04-01T15:43:41;3.78;;;2.72;;
52124;SDS011;38119;52.710;6.398;2023-04-01T15:49:12;3.40;;;2.42;;
52124;SDS011;38119;52.710;6.398;2023-04-01T15:54:32;3.85;;;2.70;;
52124;SDS011;38119;52.710;6.398;2023-04-01T16:02:54;4.57;;;2.85;;
52124;SDS011;38119;52.710;6.398;2023-04-01T16:08:45;3.97;;;3.35;;
52124;SDS011;38119;52.710;6.398;2023-04-01T16:14:11;3.38;;;2.78;;
52124;SDS011;38119;52.710;6.398;2023-04-01T16:30:43;4.57;;;2.80;;
52124;SDS011;38119;52.710;6.398;2023-04-01T16:36:28;5.15;;;2.42;;
52124;SDS011;38119;52.710;6.398;2023-04-01T16:39:15;3.30;;;2.90;;
52124;SDS011;38119;52.710;6.398;2023-04-01T16:42:20;3.65;;;2.42;;
52124;SDS011;38119;52.710;6.398;2023-04-01T16:47:27;2.92;;;2.45;;
52124;SDS011;38119;52.710;6.398;2023-04-01T16:50:00;2.88;;;2.30;;
52124;SDS011;38119;52.710;6.398;2023-04-01T16:52:57;3.10;;;2.50;;
52124;SDS011;38119;52.710;6.398;2023-04-01T16:55:54;3.03;;;2.42;;
52124;SDS011;38119;52.710;6.398;2023-04-01T16:58:27;3.25;;;2.50;;
52124;SDS011;38119;52.710;6.398;2023-04-01T17:01:12;3.80;;;2.75;;
52124;SDS011;38119;52.710;6.398;2023-04-01T17:03:43;6.13;;;3.85;;
52124;SDS011;38119;52.710;6.398;2023-04-01T17:09:13;5.50;;;2.60;;
52124;SDS011;38119;52.710;6.398;2023-04-01T17:12:19;4.50;;;2.72;;
52124;SDS011;38119;52.710;6.398;2023-04-01T17:20:49;4.63;;;3.13;;
52124;SDS011;38119;52.710;6.398;2023-04-01T17:29:20;4.60;;;3.70;;
52124;SDS011;38119;52.710;6.398;2023-04-01T17:32:00;3.67;;;3.03;;
52124;SDS011;38119;52.710;6.398;2023-04-01T17:40:25;4.07;;;3.30;;
52124;SDS011;38119;52.710;6.398;2023-04-01T17:43:16;5.75;;;4.00;;
52124;SDS011;38119;52.710;6.398;2023-04-01T17:45:54;6.00;;;4.00;;
52124;SDS011;38119;52.710;6.398;2023-04-01T17:51:23;5.63;;;4.28;;
52124;SDS011;38119;52.710;6.398;2023-04-01T17:54:05;5.78;;;4.07;;
52124;SDS011;38119;52.710;6.398;2023-04-01T18:07:48;7.72;;;5.72;;
52124;SDS011;38119;52.710;6.398;2023-04-01T18:10:39;6.60;;;5.65;;
52124;SDS011;38119;52.710;6.398;2023-04-01T18:19:14;6.65;;;4.55;;
52124;SDS011;38119;52.710;6.398;2023-04-01T18:32:48;6.95;;;4.93;;
52124;SDS011;38119;52.710;6.398;2023-04-01T18:38:12;7.97;;;4.45;;
52124;SDS011;38119;52.710;6.398;2023-04-01T18:40:43;6.80;;;4.35;;
52124;SDS011;38119;52.710;6.398;2023-04-01T18:43:21;6.95;;;4.82;;
52124;SDS011;38119;52.710;6.398;2023-04-01T18:46:09;6.45;;;4.53;;
52124;SDS011;38119;52.710;6.398;2023-04-01T18:49:02;6.40;;;4.40;;
52124;SDS011;38119;52.710;6.398;2023-04-01T18:57:16;7.47;;;5.90;;
52124;SDS011;38119;52.710;6.398;2023-04-01T18:59:45;8.18;;;6.03;;
52124;SDS011;38119;52.710;6.398;2023-04-01T19:10:16;9.00;;;5.38;;
52124;SDS011;38119;52.710;6.398;2023-04-01T19:15:46;9.88;;;5.80;;
52124;SDS011;38119;52.710;6.398;2023-04-01T19:21:29;6.78;;;5.35;;
52124;SDS011;38119;52.710;6.398;2023-04-01T19:24:14;9.25;;;6.05;;
52124;SDS011;38119;52.710;6.398;2023-04-01T19:26:58;9.50;;;5.90;;
52124;SDS011;38119;52.710;6.398;2023-04-01T19:29:52;8.35;;;5.78;;
52124;SDS011;38119;52.710;6.398;2023-04-01T19:35:19;10.70;;;6.38;;
52124;SDS011;38119;52.710;6.398;2023-04-01T19:40:54;10.68;;;7.68;;
52124;SDS011;38119;52.710;6.398;2023-04-01T19:43:33;8.75;;;6.85;;
52124;SDS011;38119;52.710;6.398;2023-04-01T19:46:14;10.18;;;6.38;;
52124;SDS011;38119;52.710;6.398;2023-04-01T19:51:52;10.68;;;6.47;;
52124;SDS011;38119;52.710;6.398;2023-04-01T19:54:28;11.57;;;6.47;;
52124;SDS011;38119;52.710;6.398;2023-04-01T19:59:54;10.68;;;6.88;;
52124;SDS011;38119;52.710;6.398;2023-04-01T20:04:57;11.98;;;7.53;;
52124;SDS011;38119;52.710;6.398;2023-04-01T20:08:04;11.85;;;8.60;;
52124;SDS011;38119;52.710;6.398;2023-04-01T20:10:31;11.93;;;7.97;;
52124;SDS011;38119;52.710;6.398;2023-04-01T20:13:17;12.65;;;7.82;;
52124;SDS011;38119;52.710;6.398;2023-04-01T20:15:45;10.60;;;7.53;;
52124;SDS011;38119;52.710;6.398;2023-04-01T20:18:32;10.77;;;7.88;;
52124;SDS011;38119;52.710;6.398;2023-04-01T20:23:43;12.05;;;7.63;;
52124;SDS011;38119;52.710;6.398;2023-04-01T20:26:30;9.93;;;6.55;;
52124;SDS011;38119;52.710;6.398;2023-04-01T20:31:56;13.68;;;7.32;;
52124;SDS011;38119;52.710;6.398;2023-04-01T20:34:51;9.23;;;6.78;;
52124;SDS011;38119;52.710;6.398;2023-04-01T20:40:01;12.95;;;6.53;;
52124;SDS011;38119;52.710;6.398;2023-04-01T20:42:34;12.63;;;7.15;;
52124;SDS011;38119;52.710;6.398;2023-04-01T20:45:22;11.10;;;7.20;;
52124;SDS011;38119;52.710;6.398;2023-04-01T20:53:43;12.48;;;7.30;;
52124;SDS011;38119;52.710;6.398;2023-04-01T21:30:00;15.02;;;7.95;;
52124;SDS011;38119;52.710;6.398;2023-04-01T21:35:01;14.63;;;7.90;;
52124;SDS011;38119;52.710;6.398;2023-04-01T21:37:46;11.98;;;7.75;;
52124;SDS011;38119;52.710;6.398;2023-04-01T21:41:16;12.35;;;7.40;;
52124;SDS011;38119;52.710;6.398;2023-04-01T21:57:14;16.08;;;7.60;;
52124;SDS011;38119;52.710;6.398;2023-04-01T22:05:46;15.18;;;8.20;;
52124;SDS011;38119;52.710;6.398;2023-04-01T22:21:29;14.20;;;7.63;;
52124;SDS011;38119;52.710;6.398;2023-04-01T22:29:53;13.23;;;7.80;;
52124;SDS011;38119;52.710;6.398;2023-04-01T22:32:32;13.38;;;7.63;;
52124;SDS011;38119;52.710;6.398;2023-04-01T22:35:15;13.20;;;7.57;;
52124;SDS011;38119;52.710;6.398;2023-04-01T22:38:05;16.60;;;8.10;;
52124;SDS011;38119;52.710;6.398;2023-04-01T22:43:13;14.32;;;8.30;;
52124;SDS011;38119;52.710;6.398;2023-04-01T22:54:02;12.23;;;7.38;;
52124;SDS011;38119;52.710;6.398;2023-04-01T22:56:39;14.35;;;7.63;;
52124;SDS011;38119;52.710;6.398;2023-04-01T22:59:15;14.38;;;7.78;;
52124;SDS011;38119;52.710;6.398;2023-04-01T23:02:02;14.00;;;7.57;;
52124;SDS011;38119;52.710;6.398;2023-04-01T23:04:37;15.75;;;7.90;;
52124;SDS011;38119;52.710;6.398;2023-04-01T23:09:58;16.30;;;7.90;;
52124;SDS011;38119;52.710;6.398;2023-04-01T23:12:26;16.10;;;7.45;;
52124;SDS011;38119;52.710;6.398;2023-04-01T23:14:57;11.95;;;7.13;;
52124;SDS011;38119;52.710;6.398;2023-04-01T23:20:12;12.55;;;7.18;;
52124;SDS011;38119;52.710;6.398;2023-04-01T23:36:41;11.43;;;6.35;;
52124;SDS011;38119;52.710;6.398;2023-04-01T23:39:17;17.08;;;7.95;;
52124;SDS011;38119;52.710;6.398;2023-04-01T23:41:56;15.75;;;7.70;;
52124;SDS011;38119;52.710;6.398;2023-04-01T23:44:37;10.98;;;6.85;;
52124;SDS011;38119;52.710;6.398;2023-04-01T23:47:03;13.60;;;6.57;;
52124;SDS011;38119;52.710;6.398;2023-04-01T23:49:35;12.85;;;6.93;;
52124;SDS011;38119;52.710;6.398;2023-04-01T23:57:21;13.43;;;6.88;;
